Time;durP1;ratioP1;P1;durP2;ratioP2;P2;SDS_P1;SDS_P2;PMS_P1;PMS_P2;Temp;Humidity;BMP_temperature;BMP_pressure;BME280_temperature;BME280_humidity;BME280_pressure;Samples;Min_cycle;Max_cycle;Signal;HPM_P1;HPM_P2
2023/12/15 00:00:26;;;;;;;4.63;3.70;;;;;;;3.23;100.00;93928.38;2090562;28;20029;-76
2023/12/15 00:01:27;;;;;;;5.45;3.67;;;;;;;3.21;100.00;93930.63;2075330;28;20493;-75
2023/12/15 00:02:28;;;;;;;4.50;3.80;;;;;;;3.23;100.00;93928.38;2096683;28;20020;-78
2023/12/15 00:03:29;;;;;;;3.95;3.30;;;;;;;3.17;100.00;93927.91;2114423;28;20027;-78
2023/12/15 00:04:30;;;;;;;4.32;3.63;;;;;;;3.22;100.00;93932.13;2097332;28;20110;-77
2023/12/15 00:05:31;;;;;;;4.20;3.63;;;;;;;3.19;100.00;93930.19;2088235;28;20486;-77
2023/12/15 00:06:34;;;;;;;3.72;3.33;;;;;;;3.02;100.00;93944.56;2103228;28;20028;-77
2023/12/15 00:07:34;;;;;;;5.63;3.38;;;;;;;3.15;100.00;93942.56;2115491;28;20020;-77
2023/12/15 00:08:35;;;;;;;5.22;3.70;;;;;;;3.15;100.00;93940.69;2115298;28;20034;-79
2023/12/15 00:09:36;;;;;;;4.05;3.55;;;;;;;3.40;100.00;93935.13;2096044;28;20032;-78
2023/12/15 00:10:38;;;;;;;3.95;3.47;;;;;;;3.42;100.00;93938.91;2098057;28;20453;-76
2023/12/15 00:11:39;;;;;;;5.93;3.70;;;;;;;3.36;100.00;93931.63;2095060;28;20048;-79
2023/12/15 00:12:40;;;;;;;4.18;3.60;;;;;;;3.12;100.00;93936.13;2102087;28;20024;-79
2023/12/15 00:13:57;;;;;;;6.07;4.03;;;;;;;3.13;100.00;93942.91;2103104;28;20023;-78
2023/12/15 00:14:58;;;;;;;3.45;3.03;;;;;;;3.39;100.00;93934.34;2098699;28;20016;-76
2023/12/15 00:15:59;;;;;;;4.13;3.58;;;;;;;3.32;100.00;93939.50;2097149;28;20035;-78
2023/12/15 00:17:02;;;;;;;4.72;3.08;;;;;;;3.23;100.00;93934.44;2102343;28;20013;-79
2023/12/15 00:18:03;;;;;;;3.72;3.35;;;;;;;3.30;100.00;93936.44;2087757;28;20629;-78
2023/12/15 00:19:04;;;;;;;3.28;2.97;;;;;;;3.38;100.00;93938.13;2084507;28;20541;-77
2023/12/15 00:20:05;;;;;;;6.35;3.58;;;;;;;3.09;100.00;93943.97;2105195;28;20020;-79
2023/12/15 00:21:06;;;;;;;3.50;3.20;;;;;;;3.16;100.00;93938.78;2113567;28;20026;-78
2023/12/15 00:22:07;;;;;;;4.10;3.65;;;;;;;3.27;100.00;93939.78;2097241;28;20028;-79
2023/12/15 00:23:08;;;;;;;5.15;3.72;;;;;;;3.31;100.00;93940.63;2080990;28;20029;-79
2023/12/15 00:24:09;;;;;;;4.38;3.65;;;;;;;3.21;100.00;93944.59;2087014;28;20116;-80
2023/12/15 00:25:10;;;;;;;4.60;3.80;;;;;;;3.05;100.00;93949.16;2089382;28;20025;-78
2023/12/15 00:26:11;;;;;;;4.53;3.75;;;;;;;3.26;100.00;93944.31;2080811;28;20025;-75
2023/12/15 00:27:12;;;;;;;4.35;3.63;;;;;;;3.02;100.00;93955.91;2084956;28;20345;-79
2023/12/15 00:28:13;;;;;;;3.83;3.40;;;;;;;3.17;100.00;93943.75;2103884;28;20043;-78
2023/12/15 00:29:14;;;;;;;4.10;3.30;;;;;;;3.18;100.00;93941.88;2115227;28;20028;-82
2023/12/15 00:30:15;;;;;;;4.43;3.30;;;;;;;3.13;100.00;93950.84;2114846;28;20890;-77
2023/12/15 00:31:16;;;;;;;3.90;3.35;;;;;;;3.00;100.00;93952.84;2105852;28;20028;-78
2023/12/15 00:32:17;;;;;;;4.95;3.72;;;;;;;2.99;100.00;93955.84;2102048;28;20075;-79
2023/12/15 00:33:18;;;;;;;4.97;3.53;;;;;;;2.98;100.00;93951.66;2095969;28;20016;-77
2023/12/15 00:34:19;;;;;;;6.22;4.10;;;;;;;3.06;100.00;93949.94;2096367;28;20122;-79
2023/12/15 00:35:20;;;;;;;4.43;4.00;;;;;;;2.98;100.00;93956.94;2097211;28;20492;-78
2023/12/15 00:36:22;;;;;;;4.88;4.05;;;;;;;3.11;100.00;93965.50;2089872;28;20079;-76
2023/12/15 00:37:22;;;;;;;5.90;3.85;;;;;;;3.14;100.00;93955.00;2097124;28;20444;-78
2023/12/15 00:38:23;;;;;;;5.45;4.03;;;;;;;3.22;100.00;93961.19;2104342;28;20047;-77
2023/12/15 00:39:24;;;;;;;5.20;3.90;;;;;;;3.14;100.00;93962.16;2093089;28;20021;-79
2023/12/15 00:40:25;;;;;;;4.90;3.63;;;;;;;3.10;100.00;93962.09;2103616;28;20020;-78
2023/12/15 00:41:27;;;;;;;6.43;3.70;;;;;;;3.13;100.00;93963.28;2111937;28;20027;-78
2023/12/15 00:42:28;;;;;;;4.80;4.30;;;;;;;3.11;100.00;93966.25;2105766;28;20022;-79
2023/12/15 00:43:29;;;;;;;5.45;3.88;;;;;;;3.05;100.00;93966.88;2105975;28;20414;-76
2023/12/15 00:44:32;;;;;;;5.18;4.03;;;;;;;2.99;100.00;93966.41;2114799;28;20026;-79
2023/12/15 00:45:34;;;;;;;4.28;3.55;;;;;;;3.11;100.00;93968.91;2112033;28;20035;-79
2023/12/15 00:46:35;;;;;;;4.38;3.67;;;;;;;3.00;100.00;93968.69;2113800;28;20398;-77
2023/12/15 00:47:36;;;;;;;5.47;4.00;;;;;;;3.05;100.00;93972.94;2103038;28;20035;-80
2023/12/15 00:48:37;;;;;;;4.18;3.72;;;;;;;3.05;100.00;93972.94;2103490;28;20052;-78
2023/12/15 00:49:38;;;;;;;5.00;4.10;;;;;;;2.98;100.00;93976.19;2112726;28;20095;-79
2023/12/15 00:50:39;;;;;;;4.47;4.00;;;;;;;2.94;100.00;93985.13;2112998;28;20034;-78
2023/12/15 00:51:40;;;;;;;4.82;3.72;;;;;;;3.09;100.00;93984.34;2103508;28;20035;-77
2023/12/15 00:52:41;;;;;;;4.93;3.80;;;;;;;3.01;100.00;93985.31;2093436;28;20119;-78
2023/12/15 00:53:42;;;;;;;4.93;3.95;;;;;;;3.02;100.00;93981.53;2103562;28;20073;-78
2023/12/15 00:54:43;;;;;;;4.55;3.50;;;;;;;3.15;100.00;93982.94;2103764;28;20093;-79
2023/12/15 00:55:44;;;;;;;4.13;3.72;;;;;;;3.12;100.00;93991.59;2105537;28;20016;-77
2023/12/15 00:56:44;;;;;;;4.72;3.60;;;;;;;3.13;100.00;93984.41;2105430;28;20077;-79
2023/12/15 00:57:45;;;;;;;6.68;4.03;;;;;;;3.16;100.00;93989.78;2087922;28;20090;-79
2023/12/15 00:58:46;;;;;;;4.03;3.50;;;;;;;3.06;100.00;93986.91;2097601;28;20065;-80
2023/12/15 00:59:48;;;;;;;4.55;3.45;;;;;;;2.93;100.00;93983.63;2112658;28;20074;-79
2023/12/15 01:00:49;;;;;;;4.25;3.25;;;;;;;3.06;100.00;93985.03;2103043;28;20537;-79
2023/12/15 01:01:50;;;;;;;4.78;3.40;;;;;;;3.06;100.00;93990.31;2095201;28;20020;-78
2023/12/15 01:02:51;;;;;;;4.72;3.45;;;;;;;3.24;100.00;93995.94;2093796;28;20033;-80
2023/12/15 01:03:52;;;;;;;4.03;3.30;;;;;;;3.39;100.00;93992.50;2095324;28;20051;-80
2023/12/15 01:04:54;;;;;;;5.22;3.38;;;;;;;3.22;100.00;94000.81;2105277;28;20093;-79
2023/12/15 01:05:55;;;;;;;4.07;3.22;;;;;;;3.35;100.00;93994.28;2103656;28;20028;-79
2023/12/15 01:06:56;;;;;;;4.93;3.42;;;;;;;3.18;100.00;94000.00;2105509;28;20036;-78
2023/12/15 01:07:57;;;;;;;5.32;3.50;;;;;;;3.22;100.00;93998.94;2103758;28;20067;-78
2023/12/15 01:08:58;;;;;;;4.43;3.22;;;;;;;3.10;100.00;94003.59;2097104;28;20115;-78
2023/12/15 01:09:59;;;;;;;4.32;3.13;;;;;;;3.36;100.00;94003.75;2093057;28;20024;-79
2023/12/15 01:11:00;;;;;;;5.80;3.53;;;;;;;3.25;100.00;94008.81;2103574;28;20081;-79
2023/12/15 01:12:01;;;;;;;5.50;3.80;;;;;;;3.11;100.00;94002.47;2104635;28;20522;-80
2023/12/15 01:13:02;;;;;;;4.50;3.45;;;;;;;3.02;100.00;94008.72;2094692;28;20036;-78
2023/12/15 01:14:03;;;;;;;4.45;3.88;;;;;;;3.07;100.00;94015.59;2093585;28;20526;-78
2023/12/15 01:15:04;;;;;;;5.40;3.78;;;;;;;3.16;100.00;94007.47;2104537;28;20027;-79
2023/12/15 01:16:06;;;;;;;4.35;3.30;;;;;;;3.13;100.00;94008.19;2104850;28;20031;-77
2023/12/15 01:17:07;;;;;;;6.03;3.83;;;;;;;3.18;100.00;94010.56;2105534;28;20028;-78
2023/12/15 01:18:08;;;;;;;4.57;4.03;;;;;;;3.13;100.00;94008.94;2094724;28;20032;-78
2023/12/15 01:19:08;;;;;;;4.25;3.85;;;;;;;3.05;100.00;94017.84;2088737;28;20075;-78
2023/12/15 01:20:10;;;;;;;4.43;3.60;;;;;;;3.18;100.00;94019.25;2097307;28;20116;-78
2023/12/15 01:21:11;;;;;;;4.05;3.55;;;;;;;3.15;100.00;94017.28;2105490;28;20481;-79
2023/12/15 01:22:12;;;;;;;5.00;3.67;;;;;;;3.19;100.00;94020.00;2111074;28;20076;-79
2023/12/15 01:23:13;;;;;;;4.57;3.63;;;;;;;3.12;100.00;94022.50;2105586;28;20069;-78
2023/12/15 01:24:14;;;;;;;5.03;3.67;;;;;;;3.10;100.00;94022.84;2097409;28;20747;-77
2023/12/15 01:25:20;;;;;;;5.72;4.00;;;;;;;3.11;100.00;94015.69;2101828;28;20032;-78
2023/12/15 01:26:21;;;;;;;7.45;3.60;;;;;;;3.14;100.00;94028.19;2103043;28;20214;-79
2023/12/15 01:27:23;;;;;;;3.97;3.63;;;;;;;3.18;100.00;94029.81;2105586;28;20377;-78
2023/12/15 01:28:24;;;;;;;4.60;3.92;;;;;;;3.07;100.00;94028.81;2105501;28;20008;-79
2023/12/15 01:29:25;;;;;;;4.55;3.50;;;;;;;3.31;100.00;94033.09;2097152;28;20468;-77
2023/12/15 01:30:25;;;;;;;4.88;3.85;;;;;;;3.20;100.00;94032.09;2097245;28;20421;-77
2023/12/15 01:31:26;;;;;;;4.43;3.78;;;;;;;3.30;100.00;94033.44;2113291;28;20031;-78
2023/12/15 01:32:27;;;;;;;5.13;3.97;;;;;;;3.12;100.00;94033.84;2109711;28;20055;-76
2023/12/15 01:33:29;;;;;;;3.80;3.47;;;;;;;3.17;100.00;94033.56;2109618;28;20027;-78
2023/12/15 01:34:30;;;;;;;4.35;3.70;;;;;;;3.13;100.00;94037.25;2111135;28;20081;-77
2023/12/15 01:35:31;;;;;;;7.60;3.85;;;;;;;3.24;100.00;94035.56;2110435;28;20488;-78
2023/12/15 01:36:32;;;;;;;5.60;4.07;;;;;;;3.10;100.00;94038.69;2104338;28;20475;-79
2023/12/15 01:37:32;;;;;;;5.72;4.03;;;;;;;3.11;100.00;94037.56;2093712;28;20024;-79
2023/12/15 01:38:33;;;;;;;7.00;4.18;;;;;;;3.16;100.00;94039.97;2088666;28;20009;-77
2023/12/15 01:39:34;;;;;;;7.45;3.85;;;;;;;3.31;100.00;94043.66;2096839;28;20833;-78
2023/12/15 01:40:35;;;;;;;4.85;4.20;;;;;;;3.23;100.00;94039.34;2094618;28;20104;-76
2023/12/15 01:41:36;;;;;;;4.18;3.78;;;;;;;3.07;100.00;94039.38;2096394;28;20053;-78
2023/12/15 01:42:37;;;;;;;3.92;3.42;;;;;;;3.14;100.00;94044.81;2104990;28;20368;-77
2023/12/15 01:43:38;;;;;;;4.63;3.60;;;;;;;3.25;100.00;94045.81;2104667;28;20019;-77
2023/12/15 01:44:40;;;;;;;5.07;3.42;;;;;;;3.29;100.00;94043.22;2102800;28;20028;-77
2023/12/15 01:45:41;;;;;;;5.00;3.88;;;;;;;3.37;100.00;94050.19;2083679;28;20029;-77
2023/12/15 01:46:42;;;;;;;4.25;3.35;;;;;;;3.27;100.00;94048.09;2094862;28;20482;-77
2023/12/15 01:47:44;;;;;;;4.13;3.72;;;;;;;3.26;100.00;94041.28;2103465;28;20031;-78
2023/12/15 01:48:45;;;;;;;3.95;3.40;;;;;;;3.36;100.00;94055.84;2112193;28;20028;-77
2023/12/15 01:49:46;;;;;;;5.80;3.70;;;;;;;3.46;100.00;94050.00;2105080;28;20024;-76
2023/12/15 01:50:47;;;;;;;3.95;3.53;;;;;;;3.29;100.00;94059.06;2097831;28;20062;-78
2023/12/15 01:51:50;;;;;;;4.30;3.60;;;;;;;3.21;100.00;94049.50;2090404;28;20031;-78
2023/12/15 01:52:51;;;;;;;4.85;3.40;;;;;;;3.18;100.00;94063.38;2086895;28;20018;-78
2023/12/15 01:53:51;;;;;;;5.32;3.65;;;;;;;3.17;100.00;94059.97;2103438;28;20115;-78
2023/12/15 01:54:52;;;;;;;3.92;3.35;;;;;;;3.26;100.00;94065.84;2114170;28;20016;-78
2023/12/15 01:55:53;;;;;;;4.18;3.42;;;;;;;3.32;100.00;94058.41;2114133;28;20019;-75
2023/12/15 01:56:54;;;;;;;5.40;3.53;;;;;;;3.43;100.00;94061.28;2112307;28;20020;-80
2023/12/15 01:57:55;;;;;;;5.20;3.80;;;;;;;3.38;100.00;94066.81;2109714;28;20027;-80
2023/12/15 01:58:56;;;;;;;5.78;3.90;;;;;;;3.45;100.00;94057.16;2100601;28;20031;-77
2023/12/15 01:59:57;;;;;;;4.70;3.33;;;;;;;3.43;100.00;94066.56;2094762;28;20028;-76
2023/12/15 02:00:58;;;;;;;5.88;4.22;;;;;;;3.53;100.00;94073.94;2100980;28;20099;-76
2023/12/15 02:01:59;;;;;;;3.92;3.53;;;;;;;3.44;100.00;94068.84;2112090;28;20530;-77
2023/12/15 02:03:00;;;;;;;4.50;3.50;;;;;;;3.35;100.00;94067.53;2101224;28;20542;-76
2023/12/15 02:04:01;;;;;;;4.22;3.60;;;;;;;3.39;100.00;94066.47;2086656;28;20049;-78
2023/12/15 02:05:02;;;;;;;4.05;3.33;;;;;;;3.12;100.00;94073.47;2082306;28;20033;-78
2023/12/15 02:06:03;;;;;;;4.70;3.83;;;;;;;3.11;100.00;94065.88;2095512;28;20031;-78
2023/12/15 02:07:04;;;;;;;4.22;3.30;;;;;;;3.21;100.00;94070.63;2104049;28;20047;-77
2023/12/15 02:08:05;;;;;;;4.13;3.67;;;;;;;3.07;100.00;94073.69;2105151;28;20027;-76
2023/12/15 02:09:07;;;;;;;3.95;3.50;;;;;;;3.11;100.00;94073.78;2103653;28;20032;-77
2023/12/15 02:10:08;;;;;;;3.65;3.35;;;;;;;3.21;100.00;94071.41;2084520;28;20521;-76
2023/12/15 02:11:08;;;;;;;4.13;3.70;;;;;;;3.00;100.00;94063.75;2096637;28;20047;-78
2023/12/15 02:12:09;;;;;;;4.18;3.42;;;;;;;2.99;100.00;94072.81;2102908;28;20106;-78
2023/12/15 02:13:10;;;;;;;4.38;3.72;;;;;;;2.94;100.00;94070.44;2105010;28;20053;-77
2023/12/15 02:14:11;;;;;;;5.88;3.53;;;;;;;2.95;100.00;94071.19;2096044;28;20911;-77
2023/12/15 02:15:12;;;;;;;4.32;3.67;;;;;;;2.92;100.00;94067.34;2094955;28;20039;-79
2023/12/15 02:16:15;;;;;;;4.10;3.47;;;;;;;2.90;100.00;94072.22;2085782;28;20120;-79
2023/12/15 02:17:16;;;;;;;5.75;3.65;;;;;;;2.87;100.00;94080.81;2094774;28;20040;-76
2023/12/15 02:18:17;;;;;;;5.63;3.92;;;;;;;2.84;100.00;94075.44;2098859;28;20437;-76
2023/12/15 02:19:18;;;;;;;4.47;3.67;;;;;;;2.65;100.00;94073.53;2104010;28;20423;-79
2023/12/15 02:20:19;;;;;;;4.28;3.88;;;;;;;2.58;100.00;94081.25;2113140;28;20019;-77
2023/12/15 02:21:20;;;;;;;4.07;3.45;;;;;;;2.72;100.00;94076.31;2102666;28;20132;-77
2023/12/15 02:22:26;;;;;;;4.18;3.78;;;;;;;2.76;100.00;94082.44;2086862;28;20800;-78
2023/12/15 02:24:58;;;;;;;;;;;;;;;1.75;100.00;94091.56;2143097;27;20114;-79
2023/12/15 02:25:58;;;;;;;4.10;3.40;;;;;;;1.91;100.00;94094.28;2128953;27;19915;-80
2023/12/15 02:26:59;;;;;;;4.28;3.42;;;;;;;2.07;100.00;94087.19;2127437;27;20022;-79
2023/12/15 02:28:00;;;;;;;4.38;3.80;;;;;;;2.06;100.00;94087.50;2137162;27;20093;-79
2023/12/15 02:29:01;;;;;;;3.80;3.30;;;;;;;1.93;100.00;94094.69;2125104;27;20026;-79
2023/12/15 02:30:03;;;;;;;5.28;3.30;;;;;;;2.04;100.00;94097.63;2126972;27;20062;-77
2023/12/15 02:31:04;;;;;;;3.70;3.40;;;;;;;2.13;100.00;94096.38;2116210;27;20032;-78
2023/12/15 02:32:05;;;;;;;5.22;3.40;;;;;;;2.20;100.00;94098.44;2124600;27;20019;-78
2023/12/15 02:33:06;;;;;;;4.57;3.60;;;;;;;2.21;100.00;94098.09;2116772;28;20472;-79
2023/12/15 02:34:07;;;;;;;5.45;3.72;;;;;;;2.13;100.00;94096.38;2114823;27;20023;-80
2023/12/15 02:35:08;;;;;;;6.35;3.83;;;;;;;2.17;100.00;94097.22;2126186;27;20023;-80
2023/12/15 02:36:18;;;;;;;4.18;3.60;;;;;;;1.95;100.00;94098.53;2125416;27;20051;-79
2023/12/15 02:37:19;;;;;;;3.92;3.40;;;;;;;1.92;100.00;94101.84;2119096;28;20026;-78
2023/12/15 02:38:20;;;;;;;4.15;3.70;;;;;;;2.16;100.00;94102.84;2109713;28;20020;-80
2023/12/15 02:39:21;;;;;;;3.47;3.17;;;;;;;2.23;100.00;94100.38;2113861;28;20020;-78
2023/12/15 02:40:22;;;;;;;4.03;3.42;;;;;;;2.13;100.00;94106.91;2120403;28;20380;-77
2023/12/15 02:41:32;;;;;;;4.88;3.70;;;;;;;2.12;100.00;94108.03;2116584;28;20019;-79
2023/12/15 02:42:33;;;;;;;3.80;3.30;;;;;;;2.29;100.00;94111.47;2121639;27;20099;-77
2023/12/15 02:43:34;;;;;;;5.47;3.55;;;;;;;2.23;100.00;94108.28;2124166;27;20088;-78
2023/12/15 02:44:35;;;;;;;5.00;4.18;;;;;;;2.08;100.00;94117.72;2125456;27;20741;-81
2023/12/15 02:45:37;;;;;;;3.90;3.50;;;;;;;2.34;100.00;94116.50;2124292;27;20022;-80
2023/12/15 02:46:37;;;;;;;4.30;3.55;;;;;;;2.38;100.00;94110.19;2117098;27;20016;-77
2023/12/15 02:47:38;;;;;;;5.07;3.80;;;;;;;2.40;100.00;94120.41;2118269;27;20070;-78
2023/12/15 02:48:39;;;;;;;5.93;3.58;;;;;;;2.44;100.00;94119.38;2123088;27;20030;-79
2023/12/15 02:49:41;;;;;;;4.55;4.00;;;;;;;2.56;100.00;94118.56;2136202;27;20023;-80
2023/12/15 02:50:42;;;;;;;4.50;3.92;;;;;;;2.50;100.00;94120.69;2124527;27;20484;-80
2023/12/15 02:51:42;;;;;;;4.90;3.60;;;;;;;2.60;100.00;94122.03;2120608;28;20016;-79
2023/12/15 02:52:43;;;;;;;4.30;3.65;;;;;;;2.59;100.00;94122.38;2118028;28;20023;-81
2023/12/15 02:53:44;;;;;;;6.32;4.00;;;;;;;2.52;100.00;94122.97;2126644;27;20023;-79
2023/12/15 02:54:45;;;;;;;5.75;4.35;;;;;;;2.51;100.00;94129.38;2118625;28;20563;-79
2023/12/15 02:55:46;;;;;;;5.90;3.60;;;;;;;2.33;100.00;94118.38;2118270;27;20110;-79
2023/12/15 02:56:47;;;;;;;4.53;3.85;;;;;;;2.37;100.00;94124.50;2125823;27;20635;-81
2023/12/15 02:57:48;;;;;;;5.20;3.97;;;;;;;2.33;100.00;94126.28;2118018;28;20019;-79
2023/12/15 02:58:49;;;;;;;4.75;4.18;;;;;;;2.34;100.00;94124.41;2117117;27;20019;-78
2023/12/15 02:59:50;;;;;;;4.63;3.97;;;;;;;2.29;100.00;94128.06;2126174;27;20380;-78
2023/12/15 03:00:51;;;;;;;4.28;3.88;;;;;;;2.35;100.00;94129.31;2127193;27;20051;-79
2023/12/15 03:01:52;;;;;;;5.47;3.92;;;;;;;2.61;100.00;94125.44;2137474;27;20029;-78
2023/12/15 03:02:53;;;;;;;4.10;3.70;;;;;;;2.78;100.00;94125.13;2134527;27;20019;-78
2023/12/15 03:03:54;;;;;;;5.35;3.50;;;;;;;2.67;100.00;94121.44;2119064;28;20091;-80
2023/12/15 03:04:55;;;;;;;4.05;3.65;;;;;;;2.68;100.00;94128.28;2117451;27;20027;-78
2023/12/15 03:05:56;;;;;;;4.70;3.55;;;;;;;2.59;100.00;94120.53;2124662;27;20465;-79
2023/12/15 03:06:58;;;;;;;5.10;3.95;;;;;;;2.61;100.00;94120.16;2124956;27;20597;-79
2023/12/15 03:07:59;;;;;;;4.68;3.75;;;;;;;2.61;100.00;94125.44;2126549;27;20529;-77
2023/12/15 03:09:00;;;;;;;3.85;3.22;;;;;;;2.61;100.00;94125.44;2117750;28;20051;-79
2023/12/15 03:10:01;;;;;;;4.25;3.85;;;;;;;2.64;100.00;94132.69;2117551;27;20068;-79
2023/12/15 03:11:02;;;;;;;5.18;3.58;;;;;;;2.54;100.00;94126.03;2118012;28;20720;-78
2023/12/15 03:12:04;;;;;;;4.65;3.75;;;;;;;2.53;100.00;94130.53;2109149;27;20016;-78
2023/12/15 03:13:05;;;;;;;6.65;4.30;;;;;;;2.50;100.00;94133.88;2124704;27;20049;-79
2023/12/15 03:14:05;;;;;;;3.85;3.42;;;;;;;2.60;100.00;94126.56;2117117;28;20402;-80
2023/12/15 03:15:21;;;;;;;4.03;3.53;;;;;;;2.43;100.00;94135.56;2116000;28;20031;-79
2023/12/15 03:16:24;;;;;;;3.67;3.30;;;;;;;2.47;100.00;94136.41;2128451;27;20046;-80
2023/12/15 03:17:24;;;;;;;5.50;3.78;;;;;;;2.48;100.00;94137.94;2121356;27;20019;-79
2023/12/15 03:18:25;;;;;;;3.65;3.35;;;;;;;2.46;100.00;94138.28;2117820;28;20039;-77
2023/12/15 03:19:26;;;;;;;4.43;3.75;;;;;;;2.37;100.00;94142.16;2126719;27;20026;-80
2023/12/15 03:20:27;;;;;;;4.18;3.50;;;;;;;2.39;100.00;94146.03;2128735;27;20022;-78
2023/12/15 03:21:28;;;;;;;5.20;4.07;;;;;;;2.57;100.00;94137.78;2131162;27;20479;-79
2023/12/15 03:22:29;;;;;;;4.15;3.75;;;;;;;2.48;100.00;94144.00;2120862;27;20019;-80
2023/12/15 03:23:30;;;;;;;5.00;3.45;;;;;;;2.45;100.00;94138.63;2128738;27;20042;-78
2023/12/15 03:24:31;;;;;;;4.40;3.67;;;;;;;2.28;100.00;94147.59;2122271;27;20142;-77
2023/12/15 03:25:32;;;;;;;4.60;3.60;;;;;;;2.31;100.00;94139.03;2118106;27;20036;-79
2023/12/15 03:26:33;;;;;;;3.60;3.20;;;;;;;2.38;100.00;94139.22;2112551;28;20382;-79
2023/12/15 03:27:34;;;;;;;4.88;3.38;;;;;;;2.56;100.00;94138.91;2120825;27;20016;-79
2023/12/15 03:28:37;;;;;;;3.60;3.15;;;;;;;2.55;100.00;94142.63;2130646;27;20019;-80
2023/12/15 03:29:38;;;;;;;3.08;2.78;;;;;;;2.40;100.00;94139.63;2117844;27;20085;-78
2023/12/15 03:30:39;;;;;;;4.25;3.45;;;;;;;2.48;100.00;94154.53;2132571;27;20018;-78
2023/12/15 03:31:41;;;;;;;5.50;3.63;;;;;;;2.45;100.00;94142.00;2130844;27;20027;-80
2023/12/15 03:32:42;;;;;;;4.05;3.30;;;;;;;2.50;100.00;94135.72;2127885;27;20038;-78
2023/12/15 03:33:43;;;;;;;3.33;3.03;;;;;;;2.39;100.00;94138.09;2137976;27;20022;-80
2023/12/15 03:34:44;;;;;;;3.05;2.75;;;;;;;2.44;100.00;94140.50;2136166;27;20046;-82
2023/12/15 03:35:57;;;;;;;3.28;2.88;;;;;;;2.57;100.00;94140.44;2125763;27;20597;-78
2023/12/15 03:36:58;;;;;;;3.45;3.15;;;;;;;2.62;100.00;94142.81;2107739;28;20730;-79
2023/12/15 03:37:59;;;;;;;3.20;2.90;;;;;;;2.70;100.00;94140.00;2112120;27;20034;-79
2023/12/15 03:38:59;;;;;;;3.60;3.30;;;;;;;2.59;100.00;94138.19;2122965;27;20072;-79
2023/12/15 03:40:03;;;;;;;3.58;2.97;;;;;;;2.50;100.00;94139.16;2122902;27;20048;-80
2023/12/15 03:41:04;;;;;;;3.80;3.40;;;;;;;2.52;100.00;94142.22;2131323;27;20015;-78
2023/12/15 03:42:07;;;;;;;3.40;2.92;;;;;;;2.43;100.00;94141.59;2123170;27;20171;-78
2023/12/15 03:43:08;;;;;;;3.22;2.90;;;;;;;2.43;100.00;94144.25;2114915;27;20027;-81
2023/12/15 03:44:08;;;;;;;5.20;3.33;;;;;;;2.50;100.00;94141.78;2114400;28;20065;-79
2023/12/15 03:45:09;;;;;;;4.10;3.42;;;;;;;2.53;100.00;94145.59;2122191;27;20019;-78
2023/12/15 03:46:11;;;;;;;4.10;2.80;;;;;;;2.39;100.00;94153.16;2131109;27;20018;-80
2023/12/15 03:47:12;;;;;;;4.30;3.25;;;;;;;2.41;100.00;94150.94;2116722;27;20060;-80
2023/12/15 03:48:13;;;;;;;3.50;3.03;;;;;;;2.35;100.00;94153.06;2110255;28;20476;-79
2023/12/15 03:49:14;;;;;;;4.00;2.83;;;;;;;2.30;100.00;94155.97;2122737;27;20026;-80
2023/12/15 03:50:15;;;;;;;4.30;2.97;;;;;;;2.49;100.00;94153.44;2132186;27;20022;-79
2023/12/15 03:51:15;;;;;;;3.42;3.08;;;;;;;2.45;100.00;94155.22;2132105;27;20692;-80
2023/12/15 03:52:16;;;;;;;3.38;3.08;;;;;;;2.48;100.00;94165.09;2132321;27;20079;-79
2023/12/15 03:53:17;;;;;;;3.72;2.90;;;;;;;2.60;100.00;94158.22;2132134;27;20068;-77
2023/12/15 03:54:18;;;;;;;3.00;2.72;;;;;;;2.36;100.00;94161.75;2125148;27;20027;-79
2023/12/15 03:55:19;;;;;;;3.30;2.88;;;;;;;2.34;100.00;94166.59;2122704;27;20551;-78
2023/12/15 03:56:24;;;;;;;4.22;2.85;;;;;;;2.29;100.00;94166.84;2107100;28;20094;-78
2023/12/15 03:57:25;;;;;;;4.40;3.20;;;;;;;2.06;100.00;94175.28;2109656;27;20103;-79
2023/12/15 03:58:26;;;;;;;3.78;2.95;;;;;;;2.22;100.00;94165.56;2119780;27;20023;-79
2023/12/15 03:59:27;;;;;;;3.10;2.80;;;;;;;2.51;100.00;94161.78;2122318;27;20019;-79
2023/12/15 04:00:29;;;;;;;3.08;2.67;;;;;;;2.42;100.00;94171.72;2122821;27;20020;-80
2023/12/15 04:01:29;;;;;;;3.13;2.65;;;;;;;2.27;100.00;94180.38;2125347;27;20023;-80
2023/12/15 04:02:30;;;;;;;3.47;3.13;;;;;;;2.33;100.00;94173.75;2131235;27;20022;-79
2023/12/15 04:03:31;;;;;;;3.30;3.00;;;;;;;2.33;100.00;94179.03;2122571;27;20046;-79
2023/12/15 04:04:32;;;;;;;3.40;3.00;;;;;;;2.38;100.00;94178.78;2114827;27;20032;-77
2023/12/15 04:05:33;;;;;;;2.90;2.60;;;;;;;2.58;100.00;94186.81;2122933;27;20057;-79
2023/12/15 04:06:34;;;;;;;3.38;3.08;;;;;;;2.72;100.00;94189.81;2116077;27;20016;-78
2023/12/15 04:07:35;;;;;;;3.38;2.97;;;;;;;2.70;100.00;94184.88;2112978;27;20026;-79
2023/12/15 04:08:36;;;;;;;2.50;2.30;;;;;;;2.49;100.00;94194.88;2114324;28;20113;-78
2023/12/15 04:09:37;;;;;;;3.50;2.85;;;;;;;2.52;100.00;94186.31;2104227;28;20020;-78
2023/12/15 04:10:39;;;;;;;3.50;2.88;;;;;;;2.57;100.00;94187.94;2113101;27;20038;-77
2023/12/15 04:11:40;;;;;;;3.42;3.10;;;;;;;2.57;100.00;94198.47;2122137;27;20015;-78
2023/12/15 04:12:41;;;;;;;3.10;2.80;;;;;;;2.57;100.00;94191.34;2131903;27;20460;-80
2023/12/15 04:13:42;;;;;;;3.95;3.15;;;;;;;2.62;100.00;94179.75;2131043;27;20022;-78
2023/12/15 04:14:43;;;;;;;3.88;2.80;;;;;;;2.49;100.00;94187.72;2131131;27;20017;-80
2023/12/15 04:15:44;;;;;;;3.85;2.90;;;;;;;2.42;100.00;94189.44;2131934;27;20053;-79
2023/12/15 04:17:00;;;;;;;4.25;3.20;;;;;;;2.43;100.00;94183.81;2130677;27;20029;-78
2023/12/15 04:18:04;;;;;;;3.67;3.08;;;;;;;2.31;100.00;94191.78;2130087;27;20033;-81
2023/12/15 04:19:05;;;;;;;3.42;2.83;;;;;;;2.26;100.00;94195.44;2130880;27;20015;-79
2023/12/15 04:20:08;;;;;;;2.92;2.63;;;;;;;2.49;100.00;94194.88;2131167;27;20387;-77
2023/12/15 04:21:10;;;;;;;3.08;2.60;;;;;;;2.60;100.00;94198.59;2122170;27;20102;-78
2023/12/15 04:22:10;;;;;;;3.28;2.97;;;;;;;2.67;100.00;94197.97;2114299;28;20457;-78
2023/12/15 04:23:11;;;;;;;4.93;2.80;;;;;;;2.43;100.00;94202.28;2121478;27;20019;-79
2023/12/15 04:24:12;;;;;;;4.90;3.08;;;;;;;2.45;100.00;94200.06;2115981;27;20023;-78
2023/12/15 04:25:14;;;;;;;3.38;2.85;;;;;;;2.64;100.00;94203.97;2122642;27;20047;-79
2023/12/15 04:26:14;;;;;;;3.83;3.00;;;;;;;2.65;100.00;94198.34;2114327;27;20031;-79
2023/12/15 04:27:15;;;;;;;3.40;3.00;;;;;;;2.58;100.00;94202.66;2122676;27;21743;-78
2023/12/15 04:28:16;;;;;;;3.33;3.00;;;;;;;2.62;100.00;94208.78;2122748;27;20084;-79
2023/12/15 04:29:17;;;;;;;3.95;3.50;;;;;;;2.49;100.00;94198.28;2114071;28;20020;-78
2023/12/15 04:30:18;;;;;;;3.55;2.97;;;;;;;2.51;100.00;94208.53;2112487;28;20024;-81
2023/12/15 04:31:19;;;;;;;3.42;3.10;;;;;;;2.61;100.00;94209.91;2112741;28;20110;-79
2023/12/15 04:32:20;;;;;;;5.78;3.92;;;;;;;2.53;100.00;94209.72;2114121;27;20027;-78
2023/12/15 04:33:21;;;;;;;3.83;3.28;;;;;;;2.62;100.00;94212.19;2123175;27;20414;-81
2023/12/15 04:34:22;;;;;;;4.25;3.30;;;;;;;2.66;100.00;94212.28;2121477;27;20101;-79
2023/12/15 04:35:23;;;;;;;4.43;3.70;;;;;;;2.53;100.00;94222.91;2121046;27;20027;-79
2023/12/15 04:36:25;;;;;;;5.90;3.78;;;;;;;2.63;100.00;94223.50;2131701;27;20038;-80
2023/12/15 04:37:26;;;;;;;4.43;4.03;;;;;;;2.60;100.00;94216.28;2126592;27;20534;-78
2023/12/15 04:38:27;;;;;;;3.13;2.83;;;;;;;2.63;100.00;94223.50;2122734;27;20020;-79
2023/12/15 04:39:27;;;;;;;4.15;3.63;;;;;;;2.50;100.00;94228.88;2131005;27;20026;-80
2023/12/15 04:40:28;;;;;;;4.28;3.40;;;;;;;2.45;100.00;94221.19;2115560;27;20034;-77
2023/12/15 04:41:30;;;;;;;3.92;3.55;;;;;;;2.41;100.00;94215.03;2107962;28;20047;-78
2023/12/15 04:42:31;;;;;;;4.35;3.70;;;;;;;2.44;100.00;94218.88;2119022;27;20094;-79
2023/12/15 04:43:32;;;;;;;5.05;3.80;;;;;;;2.63;100.00;94216.38;2111977;28;20055;-79
2023/12/15 04:44:34;;;;;;;4.07;3.10;;;;;;;2.64;100.00;94217.16;2109634;28;20594;-79
2023/12/15 04:45:35;;;;;;;4.43;3.65;;;;;;;2.46;100.00;94214.06;2120686;27;20090;-78
2023/12/15 04:46:37;;;;;;;4.22;3.63;;;;;;;2.51;100.00;94217.22;2115092;27;20047;-80
2023/12/15 04:47:38;;;;;;;4.22;3.83;;;;;;;2.62;100.00;94219.34;2121679;27;20126;-78
2023/12/15 04:48:39;;;;;;;3.90;3.50;;;;;;;2.56;100.00;94215.44;2113921;28;20471;-79
2023/12/15 04:49:40;;;;;;;4.00;3.60;;;;;;;2.52;100.00;94228.53;2114168;27;20023;-79
2023/12/15 04:50:41;;;;;;;5.55;3.63;;;;;;;2.58;100.00;94227.16;2122494;27;20023;-77